Time;durP1;ratioP1;P1;durP2;ratioP2;P2;SDS_P1;SDS_P2;PMS_P1;PMS_P2;Temp;Humidity;BMP_temperature;BMP_pressure;BME280_temperature;BME280_humidity;BME280_pressure;Samples;Min_cycle;Max_cycle;Signal;HPM_P1;HPM_P2
2021/01/09 00:00:55;;;;;;;240.17;224.50;;;0.10;99.90;;;;;;5037292;28;21030;-82
2021/01/09 00:03:22;;;;;;;239.55;223.93;;;0.10;99.90;;;;;;5052979;28;20439;-81
2021/01/09 00:05:53;;;;;;;246.98;230.40;;;0.10;99.90;;;;;;5048462;28;20334;-81
2021/01/09 00:08:20;;;;;;;255.85;239.60;;;0.20;99.90;;;;;;5033007;28;20208;-81
2021/01/09 00:10:47;;;;;;;251.73;236.98;;;0.30;99.90;;;;;;5036257;28;20205;-81
2021/01/09 00:13:15;;;;;;;253.60;238.50;;;0.30;99.90;;;;;;5052824;28;20205;-81
2021/01/09 00:15:43;;;;;;;258.63;242.13;;;0.40;99.90;;;;;;5033015;28;20479;-81
2021/01/09 00:18:09;;;;;;;269.98;251.23;;;0.30;99.90;;;;;;5032957;28;20231;-81
2021/01/09 00:20:36;;;;;;;282.85;262.65;;;0.50;99.90;;;;;;5049455;28;20195;-81
2021/01/09 00:23:02;;;;;;;278.85;257.45;;;0.50;99.90;;;;;;5052685;28;20217;-82
2021/01/09 00:25:29;;;;;;;284.65;263.52;;;0.50;99.90;;;;;;5037199;28;20228;-80
2021/01/09 00:27:55;;;;;;;284.98;264.30;;;0.60;99.90;;;;;;5032738;28;20200;-80
2021/01/09 00:30:26;;;;;;;279.77;260.73;;;0.70;99.90;;;;;;5044975;28;20208;-81
2021/01/09 00:32:52;;;;;;;290.85;271.02;;;0.70;99.90;;;;;;5052638;28;20934;-81
2021/01/09 00:35:18;;;;;;;285.83;267.73;;;0.70;99.90;;;;;;5039622;28;20193;-82
2021/01/09 00:37:45;;;;;;;287.03;266.27;;;0.70;99.90;;;;;;5032927;28;20205;-82
2021/01/09 00:40:12;;;;;;;282.60;263.13;;;0.70;99.90;;;;;;5043607;28;20865;-81
2021/01/09 00:42:39;;;;;;;283.70;266.73;;;0.80;99.90;;;;;;5052404;28;20200;-81
2021/01/09 00:45:07;;;;;;;281.85;263.15;;;0.80;99.90;;;;;;5045772;28;21070;-81
2021/01/09 00:47:35;;;;;;;288.20;268.30;;;0.90;99.90;;;;;;5035377;28;20197;-80
2021/01/09 00:50:01;;;;;;;291.93;273.17;;;0.80;99.90;;;;;;5046273;28;20568;-81
2021/01/09 00:52:29;;;;;;;288.30;268.13;;;0.90;99.90;;;;;;5048143;28;20464;-82
2021/01/09 00:54:56;;;;;;;282.35;262.45;;;0.90;99.90;;;;;;5036545;28;20200;-81
2021/01/09 00:57:22;;;;;;;291.17;270.33;;;1.00;99.90;;;;;;5036688;28;20182;-81
2021/01/09 00:59:50;;;;;;;286.77;268.40;;;1.00;99.90;;;;;;5036360;28;20257;-81
2021/01/09 01:02:17;;;;;;;283.33;264.10;;;1.00;99.90;;;;;;5040400;28;20201;-80
2021/01/09 01:04:49;;;;;;;294.77;274.50;;;1.00;99.90;;;;;;5056268;28;20795;-82
2021/01/09 01:07:15;;;;;;;298.70;279.40;;;1.10;99.90;;;;;;5051440;28;20448;-81
2021/01/09 01:09:44;;;;;;;298.25;279.85;;;1.10;99.90;;;;;;5036216;28;20467;-81
2021/01/09 01:12:10;;;;;;;305.63;286.30;;;1.00;99.90;;;;;;5039406;28;20268;-81
2021/01/09 01:14:42;;;;;;;300.13;281.85;;;1.00;99.90;;;;;;5055999;28;20608;-81
2021/01/09 01:17:09;;;;;;;298.77;279.90;;;0.90;99.90;;;;;;5052332;28;20706;-81
2021/01/09 01:19:35;;;;;;;304.50;282.80;;;0.90;99.90;;;;;;5036241;28;20456;-80
2021/01/09 01:22:02;;;;;;;303.95;285.30;;;1.00;99.90;;;;;;5036317;28;20995;-81
2021/01/09 01:24:29;;;;;;;297.88;279.65;;;1.00;99.90;;;;;;5042990;28;20202;-81
2021/01/09 01:26:55;;;;;;;310.73;290.88;;;0.90;99.90;;;;;;5035955;28;20228;-81
2021/01/09 01:29:22;;;;;;;311.92;292.15;;;0.90;99.90;;;;;;5055076;28;20196;-81
2021/01/09 01:31:48;;;;;;;305.23;285.98;;;0.90;99.90;;;;;;5051271;28;20197;-81
2021/01/09 01:34:15;;;;;;;290.57;274.07;;;0.90;99.90;;;;;;5035756;28;20197;-81
2021/01/09 01:36:48;;;;;;;282.57;266.60;;;1.00;99.90;;;;;;5037165;28;20470;-81
2021/01/09 01:39:15;;;;;;;274.80;259.63;;;1.10;99.90;;;;;;5055687;28;20447;-81
2021/01/09 01:41:42;;;;;;;264.90;250.50;;;0.90;99.90;;;;;;5054524;28;20451;-80
2021/01/09 01:44:10;;;;;;;267.07;252.67;;;0.90;99.90;;;;;;5035842;28;20448;-81
2021/01/09 01:46:37;;;;;;;268.47;253.40;;;0.90;99.90;;;;;;5034312;28;20488;-82
2021/01/09 01:49:04;;;;;;;267.42;253.20;;;0.90;99.90;;;;;;5054774;28;20461;-81
2021/01/09 01:51:30;;;;;;;265.80;250.90;;;0.90;99.90;;;;;;5055262;28;20204;-83
2021/01/09 01:53:57;;;;;;;274.03;259.13;;;1.00;99.90;;;;;;5037025;28;20197;-81
2021/01/09 01:56:26;;;;;;;273.40;258.65;;;0.90;99.90;;;;;;5034197;28;20898;-81
2021/01/09 01:58:53;;;;;;;278.93;262.10;;;0.90;99.90;;;;;;5052187;28;20582;-81
2021/01/09 02:01:20;;;;;;;291.80;272.43;;;0.90;99.90;;;;;;5054006;28;20467;-81
2021/01/09 02:03:46;;;;;;;285.45;269.23;;;0.90;99.90;;;;;;5053542;28;20448;-81
2021/01/09 02:06:17;;;;;;;270.13;254.37;;;1.00;99.90;;;;;;5055033;28;20696;-81
2021/01/09 02:08:51;;;;;;;268.57;254.50;;;0.90;99.90;;;;;;5039450;28;20457;-82
2021/01/09 02:11:30;;;;;;;266.75;252.27;;;0.90;99.90;;;;;;5035012;28;20525;-81
2021/01/09 02:14:01;;;;;;;266.67;251.83;;;0.90;99.90;;;;;;5051431;28;20203;-81
2021/01/09 02:16:29;;;;;;;260.70;246.80;;;0.80;99.90;;;;;;5053528;28;20447;-80
2021/01/09 02:18:56;;;;;;;260.77;246.77;;;0.90;99.90;;;;;;5037932;28;20951;-81
2021/01/09 02:21:29;;;;;;;266.73;251.10;;;1.00;99.90;;;;;;5034658;28;20705;-80
2021/01/09 02:23:56;;;;;;;267.20;252.77;;;0.90;99.90;;;;;;5014829;28;20504;-81
2021/01/09 02:26:23;;;;;;;261.23;247.60;;;0.90;99.90;;;;;;5015007;28;20230;-81
2021/01/09 02:28:49;;;;;;;259.30;245.50;;;0.90;99.90;;;;;;5054011;28;20550;-81
2021/01/09 02:31:21;;;;;;;256.05;242.20;;;0.90;99.90;;;;;;5053428;28;20459;-81
2021/01/09 02:33:51;;;;;;;241.67;229.03;;;0.90;99.90;;;;;;5035878;28;20571;-82
2021/01/09 02:36:20;;;;;;;253.47;239.53;;;0.90;99.90;;;;;;5034653;28;20456;-81
2021/01/09 02:38:46;;;;;;;254.45;239.93;;;0.90;99.90;;;;;;5052202;28;20524;-81
2021/01/09 02:41:15;;;;;;;256.07;241.67;;;0.80;99.90;;;;;;5054477;28;20656;-81
2021/01/09 02:43:44;;;;;;;256.10;242.10;;;0.90;99.90;;;;;;5037956;28;20449;-80
2021/01/09 02:46:10;;;;;;;255.65;241.50;;;0.80;99.90;;;;;;5034259;28;20538;-81
2021/01/09 02:48:37;;;;;;;244.60;231.25;;;1.00;99.90;;;;;;5034367;28;20194;-81
2021/01/09 02:51:05;;;;;;;249.90;234.50;;;0.80;99.90;;;;;;5053197;28;20568;-81
2021/01/09 02:53:31;;;;;;;247.13;233.38;;;0.80;99.90;;;;;;5054147;28;20683;-82
2021/01/09 02:55:58;;;;;;;251.15;236.73;;;0.80;99.90;;;;;;5036228;28;20233;-81
2021/01/09 02:58:25;;;;;;;244.35;229.35;;;0.80;99.90;;;;;;5033854;28;20649;-81
2021/01/09 03:00:51;;;;;;;244.18;230.07;;;0.70;99.90;;;;;;5034405;28;20216;-81
2021/01/09 03:03:18;;;;;;;244.90;230.15;;;0.70;99.90;;;;;;5034132;28;20194;-81
2021/01/09 03:05:54;;;;;;;;;;;;;;;;;;;;;
2021/01/09 03:08:22;;;;;;;245.27;231.77;;;0.70;99.90;;;;;;5053596;28;20197;-80
2021/01/09 03:10:49;;;;;;;247.32;231.77;;;0.80;99.90;;;;;;5039472;28;20226;-81
2021/01/09 03:13:18;;;;;;;242.98;228.48;;;0.90;99.90;;;;;;5033995;28;20619;-81
2021/01/09 03:15:45;;;;;;;241.60;227.47;;;0.80;99.90;;;;;;5045856;28;20637;-81
2021/01/09 03:18:12;;;;;;;245.07;230.17;;;0.80;99.90;;;;;;5053897;28;20491;-81
2021/01/09 03:20:38;;;;;;;236.13;222.47;;;0.80;99.90;;;;;;5042036;28;20456;-81
2021/01/09 03:23:04;;;;;;;238.15;224.27;;;0.90;99.90;;;;;;5033743;28;20456;-81
2021/01/09 03:25:31;;;;;;;235.18;220.88;;;0.90;99.90;;;;;;5043254;28;20304;-81
2021/01/09 03:27:58;;;;;;;229.97;216.13;;;0.90;99.90;;;;;;5053650;28;20555;-80
2021/01/09 03:30:25;;;;;;;224.70;211.50;;;1.00;99.90;;;;;;5052188;28;20452;-81
2021/01/09 03:32:54;;;;;;;229.13;213.90;;;0.90;99.90;;;;;;5053540;28;20456;-82
2021/01/09 03:35:22;;;;;;;230.30;216.47;;;1.00;99.90;;;;;;5046095;28;20453;-81
2021/01/09 03:37:48;;;;;;;228.60;214.33;;;1.00;99.90;;;;;;5033558;28;20452;-81
2021/01/09 03:40:15;;;;;;;236.87;221.87;;;0.90;99.90;;;;;;5040330;28;20525;-81
2021/01/09 03:42:41;;;;;;;237.33;223.83;;;0.90;99.90;;;;;;5053398;28;20546;-80
2021/01/09 03:45:09;;;;;;;226.60;213.20;;;0.90;99.90;;;;;;5048987;28;20494;-80
2021/01/09 03:47:35;;;;;;;228.60;213.50;;;0.80;99.90;;;;;;5032119;28;20460;-80
2021/01/09 03:50:03;;;;;;;221.43;207.93;;;0.80;99.90;;;;;;5035568;28;20461;-80
2021/01/09 03:52:31;;;;;;;222.83;208.53;;;0.80;99.90;;;;;;5013485;28;20456;-80
2021/01/09 03:54:57;;;;;;;230.43;215.57;;;0.90;99.90;;;;;;5016175;28;20949;-80
2021/01/09 03:57:24;;;;;;;225.47;210.73;;;0.90;99.90;;;;;;5053058;28;20230;-81
2021/01/09 03:59:50;;;;;;;229.77;215.53;;;0.90;99.90;;;;;;5045801;28;20487;-81
2021/01/09 04:02:17;;;;;;;229.70;215.90;;;0.90;99.90;;;;;;5032086;28;20456;-82
2021/01/09 04:04:49;;;;;;;231.27;216.98;;;1.00;99.90;;;;;;5037894;28;20490;-83
2021/01/09 04:07:16;;;;;;;244.83;230.00;;;1.00;99.90;;;;;;5051018;28;20199;-81
2021/01/09 04:09:47;;;;;;;235.80;221.90;;;0.90;99.90;;;;;;5043627;28;20868;-81
2021/01/09 04:12:16;;;;;;;242.20;226.87;;;0.90;99.90;;;;;;5033843;28;20215;-83
2021/01/09 04:14:42;;;;;;;250.47;232.97;;;0.90;99.90;;;;;;5032839;28;20484;-81
2021/01/09 04:17:10;;;;;;;271.33;251.43;;;0.90;99.90;;;;;;5031772;28;20463;-81
2021/01/09 04:19:37;;;;;;;267.93;246.90;;;0.90;99.90;;;;;;5032276;28;20518;-80
2021/01/09 04:22:03;;;;;;;269.83;249.50;;;0.90;99.90;;;;;;5032856;28;21001;-81
2021/01/09 04:24:32;;;;;;;248.43;232.30;;;0.80;99.90;;;;;;5032856;28;20457;-81
2021/01/09 04:27:01;;;;;;;239.20;223.47;;;0.90;99.90;;;;;;5032990;28;20817;-81
2021/01/09 04:29:31;;;;;;;240.77;224.87;;;0.70;99.90;;;;;;5032905;28;20595;-81
2021/01/09 04:31:58;;;;;;;253.02;236.85;;;0.70;99.90;;;;;;5031640;28;20456;-81
2021/01/09 04:34:26;;;;;;;261.33;244.33;;;0.70;99.90;;;;;;5032147;28;20769;-80
2021/01/09 04:36:54;;;;;;;257.88;239.43;;;0.60;99.90;;;;;;5047174;28;20452;-80
2021/01/09 04:39:21;;;;;;;263.27;243.85;;;0.60;99.90;;;;;;5049144;28;20198;-82
2021/01/09 04:41:49;;;;;;;278.23;255.60;;;0.60;99.90;;;;;;5052642;28;20770;-82
2021/01/09 04:44:20;;;;;;;287.53;261.63;;;0.50;99.90;;;;;;5049468;28;20459;-82
2021/01/09 04:46:51;;;;;;;294.67;265.98;;;0.50;99.90;;;;;;5047438;28;20483;-81
2021/01/09 04:49:20;;;;;;;287.77;261.93;;;0.40;99.90;;;;;;5047272;28;20596;-81
2021/01/09 04:51:47;;;;;;;283.80;260.15;;;0.40;99.90;;;;;;5049029;28;20946;-80
2021/01/09 04:54:20;;;;;;;263.80;245.10;;;0.40;99.90;;;;;;5012806;28;20276;-81
2021/01/09 04:56:49;;;;;;;269.25;247.98;;;0.50;99.90;;;;;;5013000;28;20569;-82
2021/01/09 04:59:17;;;;;;;258.60;242.43;;;0.50;99.90;;;;;;5033365;28;20209;-81
2021/01/09 05:01:47;;;;;;;255.05;238.77;;;0.50;99.90;;;;;;5047267;28;20447;-81
2021/01/09 05:04:16;;;;;;;251.00;236.10;;;0.60;99.90;;;;;;5052434;28;20247;-81
2021/01/09 05:06:43;;;;;;;259.75;242.18;;;0.70;99.90;;;;;;5041038;28;20487;-81
2021/01/09 05:09:11;;;;;;;247.37;231.10;;;0.80;99.90;;;;;;5041684;28;20200;-81
2021/01/09 05:11:40;;;;;;;254.83;237.67;;;0.80;99.90;;;;;;5052290;28;20456;-81
2021/01/09 05:14:08;;;;;;;254.07;237.77;;;0.80;99.90;;;;;;5049942;28;20485;-80
2021/01/09 05:16:39;;;;;;;247.65;232.70;;;0.80;99.90;;;;;;5039682;28;20494;-80
2021/01/09 05:19:17;;;;;;;247.70;232.13;;;0.80;99.90;;;;;;5036156;28;20202;-81
2021/01/09 05:21:46;;;;;;;247.50;231.98;;;0.80;99.90;;;;;;5045550;28;20471;-80
2021/01/09 05:24:22;;;;;;;240.45;225.43;;;0.80;99.90;;;;;;5039268;28;20197;-83
2021/01/09 05:26:49;;;;;;;242.37;227.57;;;0.80;99.90;;;;;;5040338;28;20688;-82
2021/01/09 05:29:18;;;;;;;241.80;226.90;;;0.90;99.90;;;;;;5044897;28;20454;-83
2021/01/09 05:31:44;;;;;;;236.03;220.70;;;0.90;99.90;;;;;;5026063;28;20459;-80
2021/01/09 05:34:11;;;;;;;228.90;214.50;;;0.80;99.90;;;;;;5055730;28;20459;-80
2021/01/09 05:36:40;;;;;;;229.93;214.90;;;0.90;99.90;;;;;;5044553;28;20456;-81
2021/01/09 05:39:07;;;;;;;220.50;205.82;;;0.90;99.90;;;;;;5038116;28;20208;-80
2021/01/09 05:41:33;;;;;;;222.83;209.30;;;0.80;99.90;;;;;;5055649;28;20203;-80
2021/01/09 05:44:01;;;;;;;220.23;205.80;;;0.90;99.90;;;;;;5054293;28;20985;-79
2021/01/09 05:46:40;;;;;;;226.05;209.68;;;0.90;99.90;;;;;;5034350;28;20484;-81
2021/01/09 05:49:09;;;;;;;247.27;223.27;;;0.90;99.90;;;;;;5036823;28;20194;-81
2021/01/09 05:51:38;;;;;;;246.27;219.87;;;0.80;99.90;;;;;;5055996;28;20547;-81
2021/01/09 05:54:05;;;;;;;244.23;217.97;;;0.80;99.90;;;;;;5054555;28;20451;-82
2021/01/09 05:56:35;;;;;;;308.17;220.50;;;0.80;99.90;;;;;;5035619;28;20531;-80
2021/01/09 05:59:01;;;;;;;401.27;228.23;;;0.80;99.90;;;;;;5035385;28;20476;-81
2021/01/09 06:01:29;;;;;;;401.35;227.48;;;0.90;99.90;;;;;;5054296;28;20447;-81
2021/01/09 06:04:04;;;;;;;425.20;226.23;;;0.80;99.90;;;;;;5055203;28;20196;-81
2021/01/09 06:06:39;;;;;;;409.67;218.17;;;0.80;99.90;;;;;;5054176;28;20227;-81
2021/01/09 06:09:08;;;;;;;328.13;215.13;;;0.80;99.90;;;;;;5055401;28;20507;-81
2021/01/09 06:11:39;;;;;;;326.77;222.43;;;0.90;99.90;;;;;;5035352;28;20817;-81
2021/01/09 06:14:07;;;;;;;310.40;211.97;;;0.80;99.90;;;;;;5035203;28;20818;-81
2021/01/09 06:16:36;;;;;;;256.75;207.45;;;0.90;99.90;;;;;;5052568;28;20817;-81
2021/01/09 06:19:05;;;;;;;312.60;198.93;;;0.80;99.90;;;;;;5054871;28;20189;-80
2021/01/09 06:21:36;;;;;;;310.73;203.17;;;0.80;99.90;;;;;;5036612;28;20283;-81
2021/01/09 06:24:04;;;;;;;306.17;198.68;;;0.80;99.90;;;;;;5050094;28;20501;-80
2021/01/09 06:26:34;;;;;;;215.57;192.77;;;0.70;99.90;;;;;;5043642;28;20764;-82
2021/01/09 06:29:04;;;;;;;248.77;206.57;;;0.80;99.90;;;;;;5034705;28;20820;-77
2021/01/09 06:31:43;;;;;;;271.03;205.27;;;0.70;99.90;;;;;;5043663;28;20447;-82
2021/01/09 06:34:12;;;;;;;233.07;200.70;;;0.80;99.90;;;;;;5054633;28;20454;-81
2021/01/09 06:36:41;;;;;;;220.97;199.30;;;0.80;99.90;;;;;;5049338;28;20448;-82
2021/01/09 06:39:09;;;;;;;278.03;192.43;;;0.80;99.90;;;;;;5039336;28;20482;-81
2021/01/09 06:41:37;;;;;;;245.45;198.63;;;0.80;99.90;;;;;;5033644;28;20481;-81
2021/01/09 06:44:07;;;;;;;231.97;206.63;;;0.90;99.90;;;;;;5034580;28;20646;-81
2021/01/09 06:46:36;;;;;;;213.27;193.03;;;0.70;99.90;;;;;;5041319;28;20479;-82
2021/01/09 06:49:03;;;;;;;219.33;198.67;;;0.80;99.90;;;;;;5054375;28;20531;-81
2021/01/09 06:51:39;;;;;;;218.85;199.38;;;0.70;99.90;;;;;;5046703;28;20539;-81
2021/01/09 06:54:26;;;;;;;219.33;198.37;;;0.80;99.90;;;;;;5043266;28;20295;-81
2021/01/09 06:57:18;;;;;;;228.30;205.10;;;0.80;99.90;;;;;;5043923;28;20960;-80
2021/01/09 06:59:45;;;;;;;231.87;208.80;;;0.80;99.90;;;;;;5034136;28;20511;-80
2021/01/09 07:02:32;;;;;;;252.93;207.10;;;0.80;99.90;;;;;;5045039;28;20487;-83
2021/01/09 07:05:05;;;;;;;271.70;214.37;;;0.80;99.90;;;;;;5054174;28;20460;-81
2021/01/09 07:07:36;;;;;;;227.60;202.10;;;0.80;99.90;;;;;;5039552;28;20456;-80
2021/01/09 07:10:13;;;;;;;238.83;214.30;;;0.80;99.90;;;;;;5034060;28;20514;-80
2021/01/09 07:12:42;;;;;;;240.43;210.17;;;0.80;99.90;;;;;;5035168;28;21005;-80
2021/01/09 07:15:10;;;;;;;243.00;217.57;;;0.90;99.90;;;;;;5033849;28;20495;-81
2021/01/09 07:17:38;;;;;;;269.83;216.73;;;0.80;99.90;;;;;;5028670;28;20456;-81
2021/01/09 07:20:12;;;;;;;264.50;219.47;;;0.80;99.90;;;;;;5033936;28;20555;-81
2021/01/09 07:22:40;;;;;;;322.63;227.52;;;0.80;99.90;;;;;;5053808;28;20805;-80
2021/01/09 07:25:10;;;;;;;396.30;252.23;;;0.80;99.90;;;;;;5053656;28;20651;-81
2021/01/09 07:27:44;;;;;;;402.23;252.27;;;0.80;99.90;;;;;;5034219;28;20807;-81
2021/01/09 07:30:16;;;;;;;377.27;249.27;;;0.80;99.90;;;;;;5042817;28;20809;-81
2021/01/09 07:32:53;;;;;;;342.67;250.47;;;0.80;99.90;;;;;;5047251;28;20534;-80
2021/01/09 07:35:24;;;;;;;355.70;238.30;;;0.90;99.90;;;;;;5030979;28;20592;-80
2021/01/09 07:37:55;;;;;;;312.43;243.80;;;0.90;99.90;;;;;;5042636;28;20464;-80
2021/01/09 07:40:22;;;;;;;259.50;232.13;;;1.00;99.90;;;;;;5041343;28;20451;-80
2021/01/09 07:42:50;;;;;;;247.60;222.27;;;0.90;99.90;;;;;;5052784;28;20460;-79
2021/01/09 07:45:19;;;;;;;247.18;221.40;;;1.00;99.90;;;;;;5047223;28;20813;-80
2021/01/09 07:47:47;;;;;;;240.20;219.70;;;0.90;99.90;;;;;;5035474;28;20221;-80
2021/01/09 07:50:21;;;;;;;246.13;220.50;;;0.90;99.90;;;;;;5038140;28;20444;-81
2021/01/09 07:55:52;;;;;;;236.90;211.20;;;1.10;99.90;;;;;;5033048;28;20204;-82
2021/01/09 07:58:48;;;;;;;237.95;210.20;;;1.00;99.90;;;;;;5044527;28;20479;-83
2021/01/09 08:01:16;;;;;;;240.30;211.60;;;1.00;99.90;;;;;;5039670;28;20277;-83
2021/01/09 08:03:43;;;;;;;283.67;218.98;;;1.10;99.90;;;;;;5044321;28;20928;-81
2021/01/09 08:06:09;;;;;;;296.33;215.88;;;1.10;99.90;;;;;;5048864;28;20220;-81
2021/01/09 08:08:36;;;;;;;243.70;217.98;;;1.10;99.90;;;;;;5053130;28;20193;-81
2021/01/09 08:11:04;;;;;;;293.67;212.63;;;1.10;99.90;;;;;;5050782;28;20230;-80
2021/01/09 08:13:32;;;;;;;250.60;205.50;;;1.10;99.90;;;;;;5037724;28;20665;-80
2021/01/09 08:16:01;;;;;;;250.02;211.00;;;1.10;99.90;;;;;;5042496;28;20480;-81
2021/01/09 08:18:27;;;;;;;302.77;211.43;;;1.20;99.90;;;;;;5034322;28;20194;-80
2021/01/09 08:20:53;;;;;;;326.70;221.43;;;1.10;99.90;;;;;;5050403;28;20530;-81
2021/01/09 08:23:22;;;;;;;278.00;208.70;;;1.20;99.90;;;;;;5050346;28;20556;-82
2021/01/09 08:25:49;;;;;;;285.50;209.00;;;1.10;99.90;;;;;;5048256;28;20483;-81
2021/01/09 08:28:16;;;;;;;250.80;208.03;;;1.10;99.90;;;;;;5048879;28;21015;-81
2021/01/09 08:30:42;;;;;;;371.83;205.13;;;1.20;99.90;;;;;;5051640;28;20829;-81
2021/01/09 08:33:11;;;;;;;471.27;213.47;;;1.20;99.90;;;;;;5048400;28;20459;-81
2021/01/09 08:35:45;;;;;;;386.33;213.25;;;1.20;99.90;;;;;;5030871;28;20483;-81
2021/01/09 08:38:12;;;;;;;424.70;206.67;;;1.20;99.90;;;;;;5044845;28;20558;-82
2021/01/09 08:40:42;;;;;;;316.17;198.47;;;1.30;99.90;;;;;;5041136;28;20512;-82
2021/01/09 08:43:40;;;;;;;358.47;200.00;;;1.30;99.90;;;;;;5048592;28;20452;-82
2021/01/09 08:46:24;;;;;;;;;;;;;;;;;;;;;
2021/01/09 08:49:00;;;;;;;361.77;196.60;;;1.20;99.90;;;;;;4993829;28;20281;-81
2021/01/09 09:57:19;;;;;;;602.27;166.87;;;1.60;99.90;;;;;;5023330;28;20464;-82
2021/01/09 10:00:08;;;;;;;482.73;156.10;;;1.60;99.90;;;;;;5014142;28;20460;-82
2021/01/09 10:02:52;;;;;;;662.77;168.23;;;1.60;99.90;;;;;;4953502;28;20452;-82
2021/01/09 10:05:24;;;;;;;450.43;154.03;;;1.60;99.90;;;;;;5033642;28;20459;-81
2021/01/09 10:08:07;;;;;;;459.17;149.67;;;1.70;99.90;;;;;;5024248;28;20461;-81
2021/01/09 10:11:02;;;;;;;518.38;149.77;;;1.50;99.90;;;;;;5013955;28;20460;-81
2021/01/09 10:13:35;;;;;;;544.20;146.83;;;1.50;99.90;;;;;;5027148;28;20204;-81
2021/01/09 10:16:22;;;;;;;496.93;144.47;;;1.60;99.90;;;;;;5011417;28;20983;-82
2021/01/09 10:18:51;;;;;;;490.70;151.70;;;1.50;99.90;;;;;;5037626;28;20959;-81
2021/01/09 10:21:41;;;;;;;653.37;159.30;;;1.60;99.90;;;;;;5050210;28;20870;-83
2021/01/09 10:24:36;;;;;;;556.20;157.80;;;1.60;99.90;;;;;;5039677;28;20456;-83
2021/01/09 10:27:34;;;;;;;;;;;;;;;;;;;;;
2021/01/09 10:30:23;;;;;;;;;;;;;;;;;;;;;
2021/01/09 10:33:01;;;;;;;;;;;;;;;;;;;;;
2021/01/09 10:38:41;;;;;;;;;;;;;;;;;;;;;
2021/01/09 10:44:48;;;;;;;359.93;156.70;;;1.80;99.90;;;;;;5044797;28;20455;-81
2021/01/09 10:47:18;;;;;;;391.00;156.63;;;1.90;99.90;;;;;;5043190;28;20480;-81
2021/01/09 10:49:56;;;;;;;354.03;149.70;;;1.90;99.90;;;;;;5033681;28;20445;-82
2021/01/09 10:52:46;;;;;;;;;;;;;;;;;;;;;
2021/01/09 10:55:18;;;;;;;299.43;148.30;;;2.00;99.90;;;;;;5034938;28;20488;-82
2021/01/09 10:58:02;;;;;;;;;;;;;;;;;;;;;
2021/01/09 11:00:34;;;;;;;323.90;158.87;;;2.00;99.90;;;;;;5032566;28;20459;-81
2021/01/09 11:03:01;;;;;;;368.67;158.60;;;2.10;99.90;;;;;;5039321;28;20510;-81
2021/01/09 11:05:31;;;;;;;292.90;152.57;;;2.10;99.90;;;;;;5052178;28;20486;-81
2021/01/09 11:08:02;;;;;;;318.63;154.87;;;2.10;99.90;;;;;;5049427;28;20456;-82
2021/01/09 11:10:31;;;;;;;382.60;155.00;;;2.20;99.90;;;;;;5049460;28;20959;-81
2021/01/09 11:13:12;;;;;;;330.00;152.27;;;2.10;99.90;;;;;;5037979;28;20491;-83
2021/01/09 11:38:15;;;;;;;177.77;133.93;;;2.70;99.90;;;;;;4782492;29;20469;-80
2021/01/09 11:40:42;;;;;;;180.83;134.30;;;2.60;99.90;;;;;;4921640;29;20460;-81
2021/01/09 11:43:09;;;;;;;176.43;136.90;;;2.80;99.90;;;;;;5000131;28;20571;-80
2021/01/09 11:45:36;;;;;;;197.43;134.87;;;2.90;99.90;;;;;;5038467;28;20926;-80
2021/01/09 11:48:02;;;;;;;148.40;128.13;;;2.90;99.90;;;;;;5045763;28;20448;-81
2021/01/09 11:50:29;;;;;;;177.57;116.83;;;3.00;99.90;;;;;;5044406;28;21003;-80
2021/01/09 11:52:55;;;;;;;129.57;115.50;;;3.10;99.90;;;;;;5043227;28;20479;-82
2021/01/09 11:55:21;;;;;;;136.17;113.63;;;3.00;99.90;;;;;;5041443;28;20476;-82
2021/01/09 11:57:51;;;;;;;129.20;110.33;;;2.90;99.90;;;;;;5039968;28;20488;-82
2021/01/09 12:00:19;;;;;;;115.03;104.63;;;2.90;99.90;;;;;;5032984;28;20543;-82
2021/01/09 12:02:46;;;;;;;114.37;102.87;;;3.00;99.90;;;;;;5033792;28;20510;-81
2021/01/09 12:05:17;;;;;;;109.73;99.83;;;3.20;99.90;;;;;;5035558;28;20624;-83
2021/01/09 12:08:35;;;;;;;;;;;;;;;;;;;;;
2021/01/09 12:11:53;;;;;;;;;;;;;;;;;;;;;
2021/01/09 12:14:26;;;;;;;95.03;86.43;;;3.10;99.90;;;;;;4968489;28;20533;-82
2021/01/09 12:17:01;;;;;;;84.20;75.53;;;3.00;99.90;;;;;;5034573;28;20460;-81
2021/01/09 12:19:28;;;;;;;79.00;70.70;;;2.80;99.90;;;;;;5050813;28;20881;-81
2021/01/09 12:21:57;;;;;;;83.00;67.00;;;2.80;99.90;;;;;;5052418;28;20452;-84
2021/01/09 12:24:25;;;;;;;72.73;65.30;;;2.80;99.90;;;;;;5042940;28;20443;-82
2021/01/09 12:29:43;;;;;;;74.10;61.77;;;2.70;99.90;;;;;;4994002;28;20475;-83
2021/01/09 12:32:13;;;;;;;71.60;64.30;;;2.80;99.90;;;;;;5045370;28;20476;-83
2021/01/09 12:34:41;;;;;;;75.27;62.50;;;2.90;99.90;;;;;;5039795;28;20919;-84
2021/01/09 12:37:21;;;;;;;75.70;67.70;;;3.00;99.90;;;;;;5048816;28;20625;-83
2021/01/09 12:39:49;;;;;;;71.70;64.00;;;3.10;99.90;;;;;;5033874;28;20959;-83
2021/01/09 12:45:08;;;;;;;81.40;73.30;;;3.30;99.90;;;;;;5034847;28;20456;-84
2021/01/09 12:47:37;;;;;;;63.73;57.33;;;3.50;99.90;;;;;;5045667;28;20482;-83
2021/01/09 12:50:29;;;;;;;58.90;52.83;;;3.70;99.90;;;;;;5021255;28;20447;-82
2021/01/09 12:53:10;;;;;;;41.47;33.50;;;3.80;99.90;;;;;;5043691;28;20952;-84
2021/01/09 12:55:43;;;;;;;51.80;32.50;;;3.70;99.90;;;;;;5036729;28;21101;-84
2021/01/09 12:58:11;;;;;;;42.83;26.63;;;3.70;99.90;;;;;;5050550;28;20450;-83
2021/01/09 13:00:53;;;;;;;;;;;;;;;;;;;;;
2021/01/09 13:03:33;;;;;;;50.27;33.40;;;3.40;99.90;;;;;;5043050;28;21135;-83
2021/01/09 13:06:25;;;;;;;47.37;30.37;;;3.30;99.90;;;;;;5034851;28;20564;-82
2021/01/09 13:08:55;;;;;;;38.20;27.10;;;3.20;99.90;;;;;;5016366;28;20489;-84
2021/01/09 13:11:33;;;;;;;47.13;35.00;;;3.10;99.90;;;;;;5016659;28;20457;-84
2021/01/09 13:14:02;;;;;;;55.23;47.67;;;3.10;99.90;;;;;;5016358;28;20944;-84
2021/01/09 13:16:30;;;;;;;77.90;59.80;;;2.90;99.90;;;;;;5015588;28;20960;-83
2021/01/09 13:18:59;;;;;;;82.63;63.30;;;2.70;99.90;;;;;;5024440;28;20486;-82
2021/01/09 13:21:27;;;;;;;93.33;71.53;;;2.70;99.90;;;;;;5056288;28;20974;-82
2021/01/09 13:24:12;;;;;;;120.30;89.53;;;2.70;99.90;;;;;;5055585;28;20549;-81
2021/01/09 13:27:01;;;;;;;121.00;93.60;;;2.60;99.90;;;;;;5056002;28;20486;-82
2021/01/09 13:29:38;;;;;;;111.37;98.50;;;2.60;99.90;;;;;;5048635;28;20448;-81
2021/01/09 13:32:19;;;;;;;122.23;100.80;;;2.70;99.90;;;;;;5034977;28;20555;-82
2021/01/09 13:34:46;;;;;;;110.80;99.10;;;2.80;99.90;;;;;;5044624;28;20512;-81
2021/01/09 13:37:12;;;;;;;133.67;111.60;;;3.00;99.90;;;;;;5055988;28;20508;-81
2021/01/09 13:39:46;;;;;;;134.63;113.03;;;2.90;99.90;;;;;;5048123;28;20487;-82
2021/01/09 13:42:19;;;;;;;115.60;98.47;;;2.80;99.90;;;;;;5035751;28;20452;-82
2021/01/09 13:44:49;;;;;;;116.67;99.60;;;2.70;99.90;;;;;;5043429;28;20512;-82
2021/01/09 13:47:19;;;;;;;139.77;104.93;;;2.60;99.90;;;;;;5053586;28;20482;-82
2021/01/09 13:49:48;;;;;;;113.13;100.97;;;2.80;99.90;;;;;;5055886;28;20447;-81
2021/01/09 13:52:25;;;;;;;;;;;;;;;;;;;;;
2021/01/09 13:54:51;;;;;;;94.43;84.63;;;3.00;99.90;;;;;;5030203;28;20445;-82
2021/01/09 13:57:18;;;;;;;94.20;85.77;;;3.00;99.90;;;;;;5039008;28;20448;-81
2021/01/09 13:59:52;;;;;;;91.37;84.13;;;3.00;99.90;;;;;;5035257;28;20473;-81
2021/01/09 14:02:33;;;;;;;84.27;77.43;;;3.10;99.90;;;;;;5034571;28;20848;-81
2021/01/09 14:05:16;;;;;;;85.83;78.13;;;3.10;99.90;;;;;;5035199;28;20456;-81
2021/01/09 14:08:10;;;;;;;88.13;74.00;;;3.00;99.90;;;;;;5046435;28;20958;-81
2021/01/09 14:10:37;;;;;;;73.50;65.73;;;2.90;99.90;;;;;;5055210;28;20455;-81
2021/01/09 14:13:03;;;;;;;72.83;65.87;;;2.80;99.90;;;;;;5053551;28;20470;-82
2021/01/09 14:15:29;;;;;;;80.30;72.90;;;2.70;99.90;;;;;;5053959;28;20779;-81
2021/01/09 14:18:01;;;;;;;82.33;74.63;;;2.70;99.90;;;;;;5042283;28;20988;-81
2021/01/09 14:20:42;;;;;;;94.77;85.83;;;2.50;99.90;;;;;;5035979;28;20456;-81
2021/01/09 14:23:30;;;;;;;110.93;100.57;;;2.60;99.90;;;;;;5051236;28;21034;-82
2021/01/09 14:26:05;;;;;;;117.67;102.73;;;2.60;99.90;;;;;;5029506;28;20959;-82
2021/01/09 14:28:33;;;;;;;118.47;107.07;;;2.60;99.90;;;;;;5043622;28;20517;-81
2021/01/09 14:31:05;;;;;;;108.07;97.57;;;2.80;99.90;;;;;;5036119;28;20458;-81
2021/01/09 14:33:33;;;;;;;103.57;94.10;;;2.60;99.90;;;;;;5014022;28;20453;-82
2021/01/09 14:36:02;;;;;;;107.53;96.13;;;2.70;99.90;;;;;;5032719;28;20499;-81